Time;durP1;ratioP1;P1;durP2;ratioP2;P2;SDS_P1;SDS_P2;PMS_P1;PMS_P2;Temp;Humidity;BMP_temperature;BMP_pressure;BME280_temperature;BME280_humidity;BME280_pressure;Samples;Min_cycle;Max_cycle;Signal;HPM_P1;HPM_P2
2023/09/20 00:01:33;;;;;;;0.20;0.20;;;;;;;17.58;89.37;99949.75;5041943;28;20025;-62
2023/09/20 00:04:00;;;;;;;0.30;0.30;;;;;;;17.56;89.26;99953.50;5031357;28;20694;-62
2023/09/20 00:06:26;;;;;;;0.20;0.20;;;;;;;17.55;89.34;99947.25;5041377;28;20029;-62
2023/09/20 00:08:52;;;;;;;0.20;0.20;;;;;;;17.55;89.43;99947.25;5031027;28;20033;-62
2023/09/20 00:11:18;;;;;;;0.20;0.20;;;;;;;17.54;89.55;99944.66;5046087;28;20155;-62
2023/09/20 00:13:45;;;;;;;0.30;0.30;;;;;;;17.46;88.77;99937.06;5051920;28;20060;-62
2023/09/20 00:16:11;;;;;;;0.20;0.20;;;;;;;17.48;88.10;99937.84;5049433;28;20040;-62
2023/09/20 00:18:37;;;;;;;0.20;0.20;;;;;;;17.48;87.36;99934.31;5050330;28;20384;-62
2023/09/20 00:21:03;;;;;;;0.20;0.20;;;;;;;17.56;88.07;99935.53;5046310;28;20044;-61
2023/09/20 00:23:29;;;;;;;0.22;0.22;;;;;;;17.60;88.20;99937.09;5046061;28;20534;-61
2023/09/20 00:25:55;;;;;;;0.30;0.30;;;;;;;17.60;88.74;99936.22;5035161;28;20053;-61
2023/09/20 00:28:21;;;;;;;0.20;0.20;;;;;;;17.58;88.80;99939.00;5030604;28;20048;-61
2023/09/20 00:30:47;;;;;;;0.20;0.20;;;;;;;17.58;89.23;99928.25;5030618;28;20049;-62
2023/09/20 00:33:14;;;;;;;0.20;0.20;;;;;;;17.54;89.28;99931.22;5048675;28;20435;-61
2023/09/20 00:35:39;;;;;;;0.30;0.30;;;;;;;17.53;89.20;99933.03;5037421;28;20393;-62
2023/09/20 00:38:05;;;;;;;0.10;0.10;;;;;;;17.50;88.83;99932.34;5068823;28;20037;-62
2023/09/20 00:40:32;;;;;;;0.20;0.20;;;;;;;17.46;89.12;99934.38;5049751;28;20029;-62
2023/09/20 00:42:58;;;;;;;0.20;0.20;;;;;;;17.50;89.00;99926.97;5050449;28;20684;-62
2023/09/20 00:45:23;;;;;;;0.20;0.20;;;;;;;17.51;89.13;99924.19;5038161;28;20032;-62
2023/09/20 00:47:57;;;;;;;0.20;0.20;;;;;;;17.51;89.56;99931.41;5033308;28;20033;-62
2023/09/20 00:50:27;;;;;;;0.25;0.25;;;;;;;17.48;89.58;99937.00;5030090;28;20026;-62
2023/09/20 00:52:54;;;;;;;0.10;0.10;;;;;;;17.45;89.84;99926.38;5030289;28;20037;-62
2023/09/20 00:55:23;;;;;;;0.20;0.20;;;;;;;17.41;89.51;99928.41;5046650;28;20041;-61
2023/09/20 00:57:53;;;;;;;0.20;0.20;;;;;;;17.29;89.60;99928.28;5032274;28;20033;-61
2023/09/20 01:00:37;;;;;;;0.20;0.20;;;;;;;17.30;89.76;99922.81;5029782;28;20101;-62
2023/09/20 01:03:04;;;;;;;0.20;0.20;;;;;;;17.33;90.43;99924.44;5034062;28;20039;-62
2023/09/20 01:05:34;;;;;;;0.22;0.22;;;;;;;17.33;90.16;99924.44;5029728;28;20069;-62
2023/09/20 01:08:01;;;;;;;0.20;0.20;;;;;;;17.24;89.62;99928.56;5030010;28;20036;-62
2023/09/20 01:10:27;;;;;;;0.20;0.20;;;;;;;17.21;89.99;99926.06;5035606;28;20074;-62
2023/09/20 01:12:54;;;;;;;0.20;0.20;;;;;;;17.25;90.61;99924.91;5045953;28;20127;-61
2023/09/20 01:15:24;;;;;;;0.20;0.20;;;;;;;17.19;90.93;99927.97;5029968;28;20042;-62
2023/09/20 01:17:58;;;;;;;0.30;0.30;;;;;;;17.23;91.20;99926.84;5040141;28;20090;-62
2023/09/20 01:20:31;;;;;;;0.25;0.25;;;;;;;17.21;91.06;99931.44;5046841;28;20502;-62
2023/09/20 01:22:58;;;;;;;0.20;0.20;;;;;;;17.19;90.95;99933.34;5064311;28;20082;-62
2023/09/20 01:25:25;;;;;;;0.20;0.20;;;;;;;17.15;90.90;99931.78;5029560;28;20037;-62
2023/09/20 01:27:56;;;;;;;0.20;0.20;;;;;;;17.20;90.79;99924.31;5029339;28;20022;-62
2023/09/20 01:30:25;;;;;;;0.20;0.20;;;;;;;17.18;91.29;99928.94;5036202;28;20397;-62
2023/09/20 01:32:54;;;;;;;0.30;0.30;;;;;;;17.18;90.95;99926.25;5028847;28;20036;-62
2023/09/20 01:35:20;;;;;;;0.20;0.20;;;;;;;17.12;91.04;99921.22;5029118;28;20460;-62
2023/09/20 01:37:46;;;;;;;0.30;0.30;;;;;;;17.11;91.04;99919.53;5031694;28;20040;-62
2023/09/20 01:40:15;;;;;;;0.30;0.30;;;;;;;17.11;91.03;99924.91;5035291;28;20025;-62
2023/09/20 01:42:43;;;;;;;0.30;0.30;;;;;;;17.13;91.55;99916.72;5029518;28;20106;-62
2023/09/20 01:45:16;;;;;;;0.20;0.20;;;;;;;17.13;91.33;99922.09;5029576;28;20116;-62
2023/09/20 01:48:05;;;;;;;0.20;0.20;;;;;;;17.07;91.20;99912.59;5037714;28;20029;-62
2023/09/20 01:50:30;;;;;;;0.20;0.20;;;;;;;17.09;91.18;99919.63;5029172;28;20049;-62
2023/09/20 01:53:00;;;;;;;0.20;0.20;;;;;;;17.09;90.73;99911.56;5037946;28;20227;-62
2023/09/20 01:55:28;;;;;;;0.20;0.20;;;;;;;17.07;91.11;99901.84;5043878;28;20484;-62
2023/09/20 01:57:57;;;;;;;0.20;0.20;;;;;;;17.03;90.49;99900.31;5038293;28;20020;-62
2023/09/20 02:00:31;;;;;;;0.20;0.20;;;;;;;17.02;90.69;99901.25;5029046;28;20048;-62
2023/09/20 02:02:59;;;;;;;0.30;0.30;;;;;;;16.98;91.25;99892.50;5030566;28;20128;-62
2023/09/20 02:05:27;;;;;;;0.20;0.20;;;;;;;17.00;90.96;99895.13;5035354;28;20124;-62
2023/09/20 02:07:54;;;;;;;0.20;0.20;;;;;;;17.00;91.23;99897.81;5031947;28;20073;-62
2023/09/20 02:10:21;;;;;;;0.25;0.25;;;;;;;16.97;91.27;99889.91;5045368;28;20035;-62
2023/09/20 02:12:51;;;;;;;0.30;0.30;;;;;;;16.96;91.96;99888.19;5032432;28;20057;-62
2023/09/20 02:15:17;;;;;;;0.30;0.30;;;;;;;16.96;92.21;99893.56;5036752;28;20048;-62
2023/09/20 02:17:43;;;;;;;0.20;0.20;;;;;;;16.91;92.08;99884.91;5039060;28;20067;-62
2023/09/20 02:20:10;;;;;;;0.30;0.30;;;;;;;16.86;92.80;99887.88;5066863;28;20025;-62
2023/09/20 02:22:40;;;;;;;0.20;0.20;;;;;;;16.86;92.32;99887.00;5033159;28;20114;-62
2023/09/20 02:25:11;;;;;;;0.30;0.30;;;;;;;16.81;93.44;99881.94;5042451;28;20043;-62
2023/09/20 02:27:43;;;;;;;0.20;0.20;;;;;;;16.80;93.53;99887.41;5049105;28;20029;-62
2023/09/20 02:30:16;;;;;;;0.20;0.20;;;;;;;16.75;93.64;99889.50;5046873;28;20121;-62
2023/09/20 02:32:52;;;;;;;0.30;0.30;;;;;;;16.73;94.02;99886.03;5042593;28;20098;-62
2023/09/20 02:35:19;;;;;;;0.30;0.30;;;;;;;16.73;93.96;99878.84;5047466;28;20039;-62
2023/09/20 02:37:46;;;;;;;0.30;0.30;;;;;;;16.76;94.37;99883.16;5036355;28;20091;-62
2023/09/20 02:40:13;;;;;;;0.30;0.30;;;;;;;16.74;94.02;99893.09;5048054;28;20087;-62
2023/09/20 02:42:53;;;;;;;0.30;0.30;;;;;;;16.69;94.91;99885.34;5048646;28;20087;-62
2023/09/20 02:45:20;;;;;;;0.20;0.20;;;;;;;16.65;94.73;99878.44;5048028;28;20554;-62
2023/09/20 02:47:46;;;;;;;0.30;0.30;;;;;;;16.70;95.02;99880.84;5047643;28;20040;-62
2023/09/20 02:50:14;;;;;;;0.20;0.20;;;;;;;16.67;94.80;99878.34;5039426;28;20100;-62
2023/09/20 02:52:40;;;;;;;0.30;0.30;;;;;;;16.68;95.29;99874.69;5040363;28;20021;-62
2023/09/20 02:55:12;;;;;;;0.20;0.20;;;;;;;16.63;94.67;99863.34;5043254;28;20037;-62
2023/09/20 02:57:37;;;;;;;0.30;0.30;;;;;;;16.65;94.57;99862.31;5048512;28;20040;-62
2023/09/20 03:00:51;;;;;;;0.22;0.22;;;;;;;16.66;95.48;99863.16;5037643;28;20022;-61
2023/09/20 03:03:00;;;;;;;;;;;;;;;16.67;95.35;99859.53;5021556;28;20037;-61
2023/09/20 03:05:29;;;;;;;0.30;0.30;;;;;;;16.63;95.81;99853.47;5041671;28;19951;-62
2023/09/20 03:07:55;;;;;;;0.30;0.30;;;;;;;16.61;95.87;99857.19;5048055;28;20112;-62
2023/09/20 03:10:22;;;;;;;0.30;0.30;;;;;;;16.60;96.21;99856.34;5043399;28;20035;-61
2023/09/20 03:12:54;;;;;;;0.30;0.30;;;;;;;16.59;96.24;99859.13;5047388;28;20896;-61
2023/09/20 03:15:22;;;;;;;0.30;0.30;;;;;;;16.61;96.16;99866.13;5028378;28;20152;-61
2023/09/20 03:17:50;;;;;;;0.22;0.22;;;;;;;16.58;96.41;99874.38;5035813;28;20473;-61
2023/09/20 03:20:26;;;;;;;0.28;0.28;;;;;;;16.58;95.76;99860.06;5043524;28;20598;-62
2023/09/20 03:22:54;;;;;;;0.20;0.20;;;;;;;16.58;95.57;99855.56;5032090;28;20030;-61
2023/09/20 03:25:22;;;;;;;0.28;0.28;;;;;;;16.54;95.78;99847.81;5032097;28;20029;-61
2023/09/20 03:27:49;;;;;;;0.20;0.20;;;;;;;16.55;96.40;99849.53;5045682;28;20041;-61
2023/09/20 03:30:20;;;;;;;0.22;0.22;;;;;;;16.51;95.89;99842.59;5044615;28;20026;-62
2023/09/20 03:32:49;;;;;;;0.30;0.30;;;;;;;16.59;96.11;99843.03;5031607;28;20167;-62
2023/09/20 03:35:16;;;;;;;0.30;0.30;;;;;;;16.56;96.07;99841.38;5031737;28;20029;-61
2023/09/20 03:37:43;;;;;;;0.30;0.30;;;;;;;16.55;96.87;99844.16;5047551;28;20054;-61
2023/09/20 03:40:21;;;;;;;0.30;0.30;;;;;;;16.52;97.12;99844.34;5039457;28;20037;-62
2023/09/20 03:42:48;;;;;;;0.20;0.20;;;;;;;16.51;97.82;99842.59;5051363;28;20789;-62
2023/09/20 03:45:15;;;;;;;0.20;0.20;;;;;;;16.53;97.52;99840.69;5050572;28;20032;-62
2023/09/20 03:47:41;;;;;;;0.28;0.28;;;;;;;16.54;97.61;99832.53;5037047;28;20207;-62
2023/09/20 03:50:07;;;;;;;0.22;0.22;;;;;;;16.56;97.82;99837.81;5031735;28;20030;-62
2023/09/20 03:52:33;;;;;;;0.30;0.30;;;;;;;16.55;97.77;99833.41;5034676;28;20033;-62
2023/09/20 03:54:58;;;;;;;0.20;0.20;;;;;;;16.56;98.25;99832.44;5048566;28;20079;-62
2023/09/20 03:57:25;;;;;;;0.20;0.20;;;;;;;16.53;98.22;99843.38;5046431;28;20577;-62
2023/09/20 03:59:54;;;;;;;0.20;0.20;;;;;;;16.55;97.66;99834.28;5035257;28;20024;-62
2023/09/20 04:02:23;;;;;;;0.30;0.30;;;;;;;16.53;97.99;99828.13;5047614;28;20067;-62
2023/09/20 04:04:53;;;;;;;0.25;0.25;;;;;;;16.57;97.87;99836.88;5031418;28;20040;-62
2023/09/20 04:07:19;;;;;;;0.30;0.30;;;;;;;16.59;97.29;99835.81;5039901;28;20476;-62
2023/09/20 04:09:44;;;;;;;0.20;0.20;;;;;;;16.62;97.41;99834.78;5040609;28;20076;-62
2023/09/20 04:12:11;;;;;;;0.30;0.30;;;;;;;16.60;96.99;99836.69;5039046;28;20842;-62
2023/09/20 04:14:37;;;;;;;0.30;0.30;;;;;;;16.61;97.55;99828.53;5030814;28;20029;-62
2023/09/20 04:17:04;;;;;;;0.30;0.30;;;;;;;16.60;97.43;99820.56;5045486;28;20099;-62
2023/09/20 04:19:30;;;;;;;0.20;0.20;;;;;;;16.62;97.69;99813.28;5043563;28;20026;-62
2023/09/20 04:21:56;;;;;;;0.20;0.20;;;;;;;16.63;97.56;99818.56;5045914;28;20123;-62
2023/09/20 04:24:22;;;;;;;0.25;0.25;;;;;;;16.64;97.17;99805.97;5044832;28;20044;-62
2023/09/20 04:26:48;;;;;;;0.30;0.30;;;;;;;16.68;97.59;99804.84;5030629;28;20480;-62
2023/09/20 04:29:13;;;;;;;0.20;0.20;;;;;;;16.69;96.98;99809.25;5030537;28;20129;-62
2023/09/20 04:31:40;;;;;;;0.30;0.30;;;;;;;16.64;96.96;99805.97;5047532;28;20120;-62
2023/09/20 04:34:05;;;;;;;0.30;0.30;;;;;;;16.63;96.67;99807.81;5048084;28;20079;-62
2023/09/20 04:36:31;;;;;;;0.20;0.20;;;;;;;16.64;96.84;99805.97;5041346;28;20060;-62
2023/09/20 04:38:56;;;;;;;0.30;0.30;;;;;;;16.56;97.42;99794.84;5031884;28;20025;-62
2023/09/20 04:41:22;;;;;;;0.30;0.30;;;;;;;16.61;97.42;99806.19;5040679;28;20448;-62
2023/09/20 04:43:48;;;;;;;0.30;0.30;;;;;;;16.62;97.40;99805.25;5039793;28;20040;-62
2023/09/20 04:46:14;;;;;;;0.28;0.28;;;;;;;16.63;97.27;99806.94;5030360;28;20056;-62
2023/09/20 04:48:40;;;;;;;0.25;0.25;;;;;;;16.64;97.52;99800.63;5033306;28;20060;-62
2023/09/20 04:51:05;;;;;;;0.30;0.30;;;;;;;16.65;97.28;99800.56;5035638;28;20039;-62
2023/09/20 04:53:33;;;;;;;0.20;0.20;;;;;;;16.63;97.16;99793.53;5043603;28;20552;-62
2023/09/20 04:55:59;;;;;;;0.30;0.30;;;;;;;16.66;97.66;99807.63;5039435;28;20033;-62
2023/09/20 04:58:25;;;;;;;0.30;0.30;;;;;;;16.66;97.52;99799.56;5029557;28;20393;-62
2023/09/20 05:00:51;;;;;;;0.30;0.30;;;;;;;16.66;97.44;99804.06;5040462;28;20103;-62
2023/09/20 05:03:17;;;;;;;0.30;0.30;;;;;;;16.64;97.67;99798.81;5047736;28;20176;-62
2023/09/20 05:05:43;;;;;;;0.22;0.22;;;;;;;16.64;97.22;99805.97;5049411;28;20101;-62
2023/09/20 05:08:09;;;;;;;0.30;0.30;;;;;;;16.64;97.58;99806.84;5048097;28;21647;-62
2023/09/20 05:10:34;;;;;;;0.30;0.30;;;;;;;16.67;97.55;99813.88;5040887;28;20056;-62
2023/09/20 05:13:01;;;;;;;0.30;0.30;;;;;;;16.68;97.88;99802.16;5040415;28;20481;-62
2023/09/20 05:15:26;;;;;;;0.30;0.30;;;;;;;16.66;97.54;99804.06;5044733;28;20048;-62
2023/09/20 05:17:52;;;;;;;0.30;0.30;;;;;;;16.70;97.46;99801.13;5038996;28;20431;-62
2023/09/20 05:20:18;;;;;;;0.30;0.30;;;;;;;16.70;97.74;99800.25;5029462;28;20026;-62
2023/09/20 05:22:44;;;;;;;0.30;0.30;;;;;;;16.78;97.30;99808.72;5035397;28;20056;-62
2023/09/20 05:25:09;;;;;;;0.30;0.30;;;;;;;16.78;97.74;99811.41;5046308;28;20092;-62
2023/09/20 05:27:38;;;;;;;0.30;0.30;;;;;;;16.83;97.31;99811.97;5030077;28;20044;-62
2023/09/20 05:30:05;;;;;;;0.20;0.20;;;;;;;16.88;97.36;99810.75;5033910;28;20037;-62
2023/09/20 05:32:30;;;;;;;0.20;0.20;;;;;;;16.90;96.96;99807.97;5044663;28;20365;-62
2023/09/20 05:34:56;;;;;;;0.20;0.20;;;;;;;16.93;96.88;99797.03;5037993;28;20094;-62
2023/09/20 05:37:22;;;;;;;0.20;0.20;;;;;;;16.94;96.66;99801.44;5037849;28;20499;-62
2023/09/20 05:39:48;;;;;;;0.30;0.30;;;;;;;16.98;96.67;99792.25;5029698;28;20847;-62
2023/09/20 05:42:14;;;;;;;0.28;0.28;;;;;;;17.04;96.19;99802.59;5031600;28;20061;-62
2023/09/20 05:44:40;;;;;;;0.30;0.30;;;;;;;17.03;96.24;99803.56;5038188;28;20025;-62
2023/09/20 05:47:08;;;;;;;0.20;0.20;;;;;;;17.07;96.00;99800.59;5033750;28;20437;-62
2023/09/20 05:49:34;;;;;;;0.30;0.30;;;;;;;17.15;95.87;99808.16;5048107;28;20471;-62
2023/09/20 05:52:00;;;;;;;0.20;0.20;;;;;;;17.18;96.12;99797.25;5042967;28;20037;-62
2023/09/20 05:54:25;;;;;;;0.20;0.20;;;;;;;17.30;95.82;99807.19;5044768;28;20033;-62
2023/09/20 05:56:51;;;;;;;0.30;0.30;;;;;;;17.42;95.22;99805.56;5041557;28;20104;-62
2023/09/20 05:59:17;;;;;;;0.20;0.20;;;;;;;17.51;94.50;99807.69;5038378;28;20063;-62
2023/09/20 06:01:42;;;;;;;0.30;0.30;;;;;;;17.61;94.15;99817.75;5038529;28;20024;-62
2023/09/20 06:04:09;;;;;;;0.20;0.20;;;;;;;17.72;93.62;99814.38;5040435;28;20098;-62
2023/09/20 06:06:37;;;;;;;0.30;0.30;;;;;;;17.79;92.95;99819.25;5029384;28;20031;-63
2023/09/20 06:09:03;;;;;;;0.20;0.20;;;;;;;17.89;92.64;99815.00;5035903;28;20087;-62
2023/09/20 06:11:28;;;;;;;0.30;0.30;;;;;;;17.96;92.47;99819.03;5037683;28;20053;-62
2023/09/20 06:13:54;;;;;;;0.30;0.30;;;;;;;18.11;91.82;99823.41;5047704;28;20029;-62
2023/09/20 06:16:20;;;;;;;0.20;0.20;;;;;;;18.25;91.76;99820.63;5038883;28;20026;-62
2023/09/20 06:18:47;;;;;;;0.20;0.20;;;;;;;18.47;91.46;99824.66;5042972;28;20084;-62
2023/09/20 06:21:14;;;;;;;0.20;0.20;;;;;;;18.54;89.40;99825.94;5029062;28;20097;-63
2023/09/20 06:23:40;;;;;;;0.20;0.20;;;;;;;18.73;88.68;99823.72;5041789;28;20032;-63
2023/09/20 06:26:09;;;;;;;0.20;0.20;;;;;;;18.98;87.37;99821.91;5046953;28;20028;-62
2023/09/20 06:28:35;;;;;;;0.20;0.20;;;;;;;19.10;85.39;99814.78;5045470;28;20064;-61
2023/09/20 06:31:01;;;;;;;0.20;0.20;;;;;;;19.05;84.72;99814.25;5045041;28;20056;-61
2023/09/20 06:33:26;;;;;;;0.20;0.20;;;;;;;19.01;84.70;99816.28;5034460;28;20025;-62
2023/09/20 06:35:55;;;;;;;0.20;0.20;;;;;;;18.92;85.89;99810.69;5029866;28;20025;-61
2023/09/20 06:38:23;;;;;;;0.20;0.20;;;;;;;18.92;85.26;99810.69;5047574;28;20029;-61
2023/09/20 06:40:53;;;;;;;0.20;0.20;;;;;;;19.21;87.80;99799.56;5043675;28;20022;-62
2023/09/20 06:43:18;;;;;;;0.20;0.20;;;;;;;20.60;84.35;99806.28;5046767;28;20031;-62
2023/09/20 06:45:51;;;;;;;0.20;0.20;;;;;;;22.72;72.94;99803.31;5042813;28;20112;-62
2023/09/20 06:48:23;;;;;;;0.20;0.20;;;;;;;22.65;66.13;99808.41;5028502;28;20029;-62
2023/09/20 06:50:54;;;;;;;0.20;0.20;;;;;;;21.92;67.84;99807.41;5046892;28;20033;-61
2023/09/20 06:53:20;;;;;;;0.20;0.20;;;;;;;21.58;71.36;99813.81;5048412;28;20115;-61
2023/09/20 06:55:48;;;;;;;0.10;0.10;;;;;;;22.88;69.88;99798.31;5040158;28;20070;-61
2023/09/20 06:58:13;;;;;;;0.20;0.20;;;;;;;23.90;61.04;99793.66;5032442;28;20036;-61
2023/09/20 07:00:39;;;;;;;0.10;0.10;;;;;;;23.31;62.61;99799.03;5036013;28;20025;-62
2023/09/20 07:03:05;;;;;;;0.20;0.20;;;;;;;22.50;65.28;99804.28;5052311;28;20114;-61
2023/09/20 07:05:31;;;;;;;0.20;0.20;;;;;;;22.58;68.88;99809.06;5050449;28;20807;-61
2023/09/20 07:08:00;;;;;;;0.15;0.15;;;;;;;24.45;63.97;99791.19;5038280;28;20151;-62
2023/09/20 07:10:27;;;;;;;0.10;0.10;;;;;;;26.46;54.91;99807.72;5050559;28;20174;-61
2023/09/20 07:12:54;;;;;;;0.13;0.13;;;;;;;27.83;49.26;99800.59;5033912;28;20053;-61
2023/09/20 07:15:24;;;;;;;0.10;0.10;;;;;;;28.54;47.38;99798.28;5030787;28;20064;-61
2023/09/20 07:18:00;;;;;;;0.10;0.10;;;;;;;28.39;47.06;99804.41;5043150;28;20107;-61
2023/09/20 07:20:26;;;;;;;0.20;0.20;;;;;;;27.00;49.08;99793.06;5050500;28;20489;-61
2023/09/20 07:22:51;;;;;;;0.15;0.15;;;;;;;25.35;53.26;99805.31;5052305;28;20056;-61
2023/09/20 07:25:19;;;;;;;0.10;0.10;;;;;;;24.24;58.43;99805.91;5037332;28;20456;-61
2023/09/20 07:27:51;;;;;;;0.10;0.10;;;;;;;23.51;61.76;99795.38;5032093;28;20057;-61
2023/09/20 07:30:19;;;;;;;0.10;0.10;;;;;;;23.21;64.90;99784.50;5048013;28;20110;-61
2023/09/20 07:32:46;;;;;;;0.10;0.10;;;;;;;23.24;64.74;99790.50;5051929;28;20112;-61
2023/09/20 07:35:19;;;;;;;0.10;0.10;;;;;;;23.41;64.57;99781.78;5050682;28;20556;-61
2023/09/20 07:37:48;;;;;;;0.10;0.10;;;;;;;24.18;63.27;99793.78;5037640;28;20544;-62
2023/09/20 07:40:13;;;;;;;0.10;0.10;;;;;;;25.59;58.89;99789.28;5033922;28;20025;-62
2023/09/20 07:42:40;;;;;;;0.10;0.10;;;;;;;26.84;54.03;99780.16;5046094;28;20029;-63
2023/09/20 07:45:13;;;;;;;0.10;0.10;;;;;;;27.67;51.41;99782.25;5030756;28;20022;-63
2023/09/20 07:47:43;;;;;;;0.10;0.10;;;;;;;28.32;48.07;99776.00;5042893;28;20078;-63
2023/09/20 07:50:11;;;;;;;0.10;0.10;;;;;;;28.59;46.73;99774.00;5043196;28;20043;-63
2023/09/20 07:52:40;;;;;;;0.10;0.10;;;;;;;28.47;46.53;99778.06;5031889;28;20048;-63
2023/09/20 07:55:07;;;;;;;0.10;0.10;;;;;;;28.68;45.89;99770.25;5044254;28;20059;-63
2023/09/20 07:57:33;;;;;;;0.10;0.10;;;;;;;28.85;45.65;99777.41;5034235;28;20017;-63
2023/09/20 07:59:59;;;;;;;0.10;0.10;;;;;;;29.14;44.72;99772.31;5035205;28;20024;-63
2023/09/20 08:02:27;;;;;;;0.00;0.00;;;;;;;29.26;43.59;99777.25;5035142;28;20125;-63
2023/09/20 08:04:54;;;;;;;0.03;0.03;;;;;;;29.14;44.69;99780.53;5044987;28;20044;-63
2023/09/20 08:07:19;;;;;;;0.10;0.10;;;;;;;28.06;46.00;99780.72;5039566;28;20033;-63
2023/09/20 08:09:45;;;;;;;0.10;0.10;;;;;;;27.09;48.02;99773.00;5040885;28;20029;-63
2023/09/20 08:12:11;;;;;;;0.10;0.10;;;;;;;26.68;50.36;99784.59;5034675;28;20049;-63
2023/09/20 08:14:37;;;;;;;0.10;0.10;;;;;;;26.55;51.44;99785.00;5034642;28;20443;-63
2023/09/20 08:19:47;;;;;;;0.00;0.00;;;;;;;26.34;51.87;99791.75;5030957;28;20124;-63
2023/09/20 08:22:15;;;;;;;0.10;0.10;;;;;;;26.37;52.26;99786.00;5035725;28;20112;-63
2023/09/20 09:00:27;;;;;;;0.00;0.00;;;;;;;30.05;44.38;99787.28;5040193;28;20043;-63
2023/09/20 09:02:54;;;;;;;0.00;0.00;;;;;;;30.11;43.07;99783.81;5048207;28;20039;-63
2023/09/20 09:05:23;;;;;;;0.00;0.00;;;;;;;30.29;42.55;99790.78;5031592;28;20025;-63
2023/09/20 09:07:48;;;;;;;0.00;0.00;;;;;;;30.15;41.98;99780.53;5030556;28;20025;-63
2023/09/20 09:10:14;;;;;;;0.00;0.00;;;;;;;30.38;42.55;99775.97;5034022;28;20041;-63
2023/09/20 09:12:42;;;;;;;0.00;0.00;;;;;;;30.68;41.11;99777.81;5033208;28;20057;-63
2023/09/20 09:15:10;;;;;;;0.00;0.00;;;;;;;30.60;41.00;99768.78;5049572;28;20041;-63
2023/09/20 09:17:41;;;;;;;0.00;0.00;;;;;;;30.25;40.63;99775.69;5031399;28;20371;-63
2023/09/20 09:20:10;;;;;;;0.00;0.00;;;;;;;30.42;42.39;99774.56;5034631;28;20083;-63
2023/09/20 09:22:40;;;;;;;0.00;0.00;;;;;;;30.75;41.96;99767.81;5034147;28;20021;-63
2023/09/20 09:25:18;;;;;;;0.00;0.00;;;;;;;31.11;41.59;99772.66;5047125;28;20032;-64
2023/09/20 09:27:43;;;;;;;0.00;0.00;;;;;;;31.20;41.09;99769.66;5049708;28;20021;-63
2023/09/20 09:30:13;;;;;;;0.00;0.00;;;;;;;31.24;40.70;99764.59;5046294;28;20044;-63
2023/09/20 09:32:41;;;;;;;0.00;0.00;;;;;;;31.48;40.05;99756.16;5035907;28;20035;-66
2023/09/20 09:35:08;;;;;;;0.00;0.00;;;;;;;31.84;40.06;99759.81;5059573;28;20074;-64
2023/09/20 09:37:35;;;;;;;0.00;0.00;;;;;;;31.78;40.00;99766.09;5036345;28;20650;-64
2023/09/20 09:40:06;;;;;;;0.00;0.00;;;;;;;31.81;40.40;99755.53;5033420;28;20029;-63
2023/09/20 09:42:32;;;;;;;0.00;0.00;;;;;;;31.93;39.90;99748.56;5034350;28;20033;-63
2023/09/20 09:45:04;;;;;;;0.00;0.00;;;;;;;32.20;40.76;99749.72;5029215;28;20036;-64
2023/09/20 09:47:30;;;;;;;0.00;0.00;;;;;;;32.49;38.79;99741.38;5045752;28;20117;-64
2023/09/20 09:49:58;;;;;;;0.00;0.00;;;;;;;32.65;38.89;99745.78;5032175;28;20132;-64
2023/09/20 09:52:23;;;;;;;0.00;0.00;;;;;;;32.65;39.56;99732.88;5040684;28;20075;-64
2023/09/20 09:54:50;;;;;;;0.00;0.00;;;;;;;32.82;39.07;99728.78;5050244;28;20091;-62
2023/09/20 09:57:18;;;;;;;0.00;0.00;;;;;;;32.91;39.29;99724.88;5061150;28;20432;-60
2023/09/20 09:59:45;;;;;;;0.00;0.00;;;;;;;32.50;38.10;99729.34;5029580;28;20031;-61
2023/09/20 10:02:21;;;;;;;0.00;0.00;;;;;;;32.76;38.47;99726.81;5034015;28;20036;-60
2023/09/20 10:05:00;;;;;;;0.00;0.00;;;;;;;32.94;37.33;99729.97;5046156;28;20492;-61
2023/09/20 10:07:40;;;;;;;0.00;0.00;;;;;;;33.12;37.34;99727.56;5046380;28;20037;-60
2023/09/20 10:10:13;;;;;;;0.00;0.00;;;;;;;33.20;36.45;99732.94;5040412;28;20017;-60
2023/09/20 10:12:39;;;;;;;;;;;;;;;33.28;36.78;99724.50;5038817;28;20057;-61
2023/09/20 10:15:11;;;;;;;0.00;0.00;;;;;;;33.22;36.19;99719.81;5029206;28;19913;-60
2023/09/20 10:17:51;;;;;;;0.00;0.00;;;;;;;33.13;36.53;99709.97;5032268;28;20033;-60
2023/09/20 10:20:18;;;;;;;0.00;0.00;;;;;;;33.26;36.59;99704.53;5046029;28;20035;-60
2023/09/20 10:22:47;;;;;;;0.00;0.00;;;;;;;33.35;36.03;99708.00;5033945;28;20049;-60
2023/09/20 10:25:31;;;;;;;0.00;0.00;;;;;;;33.55;36.59;99688.81;5029184;28;20029;-61
2023/09/20 10:27:56;;;;;;;0.00;0.00;;;;;;;33.69;36.44;99693.38;5034495;28;20188;-60
2023/09/20 10:30:22;;;;;;;0.00;0.00;;;;;;;33.50;34.88;99688.59;5044611;28;20025;-60
2023/09/20 10:32:48;;;;;;;0.00;0.00;;;;;;;32.33;36.70;99689.28;5034724;28;20049;-60
2023/09/20 10:35:19;;;;;;;0.00;0.00;;;;;;;32.26;36.49;99682.03;5036621;28;20029;-60
2023/09/20 10:38:08;;;;;;;0.00;0.00;;;;;;;32.48;37.65;99673.59;5050419;28;20025;-60
2023/09/20 10:40:45;;;;;;;0.00;0.00;;;;;;;32.54;36.49;99675.53;5041475;28;20052;-60
2023/09/20 10:43:15;;;;;;;0.00;0.00;;;;;;;33.12;37.47;99672.44;5036212;28;20059;-60
2023/09/20 10:45:41;;;;;;;0.00;0.00;;;;;;;32.28;36.40;99663.38;5042137;28;20464;-60
2023/09/20 10:48:12;;;;;;;0.00;0.00;;;;;;;32.52;37.11;99657.53;5032956;28;20108;-61
2023/09/20 10:50:48;;;;;;;0.00;0.00;;;;;;;32.91;37.66;99669.75;5036474;28;20472;-61
2023/09/20 10:53:18;;;;;;;0.00;0.00;;;;;;;33.19;35.95;99659.56;5032275;28;20384;-61
2023/09/20 10:55:44;;;;;;;0.00;0.00;;;;;;;33.42;36.10;99659.28;5035954;28;20029;-60
2023/09/20 10:58:09;;;;;;;0.00;0.00;;;;;;;33.45;35.52;99650.59;5042510;28;20025;-60
2023/09/20 11:00:36;;;;;;;0.00;0.00;;;;;;;33.75;35.01;99653.91;5046574;28;20025;-60
2023/09/20 11:03:06;;;;;;;0.00;0.00;;;;;;;34.14;35.29;99651.28;5044738;28;20091;-61
2023/09/20 11:05:32;;;;;;;0.00;0.00;;;;;;;34.26;33.64;99647.72;5040475;28;20032;-60
2023/09/20 11:08:06;;;;;;;0.00;0.00;;;;;;;34.08;33.87;99639.19;5035241;28;20718;-62
2023/09/20 11:10:33;;;;;;;0.00;0.00;;;;;;;34.28;33.31;99640.03;5043251;28;20033;-63
2023/09/20 11:12:58;;;;;;;0.00;0.00;;;;;;;33.95;34.30;99641.91;5036013;28;20123;-63
2023/09/20 11:15:24;;;;;;;0.00;0.00;;;;;;;34.16;34.48;99632.59;5039840;28;20029;-63
2023/09/20 11:17:49;;;;;;;0.00;0.00;;;;;;;34.06;33.25;99623.88;5035244;28;20032;-63
2023/09/20 11:20:15;;;;;;;0.00;0.00;;;;;;;34.06;34.39;99624.72;5035094;28;20056;-63
2023/09/20 11:22:41;;;;;;;0.00;0.00;;;;;;;33.25;33.75;99628.41;5041979;28;20495;-62
2023/09/20 11:25:07;;;;;;;0.00;0.00;;;;;;;32.81;35.02;99621.50;5043008;28;20800;-62
2023/09/20 11:27:37;;;;;;;0.00;0.00;;;;;;;33.06;34.82;99615.38;5034880;28;20112;-62
2023/09/20 11:30:10;;;;;;;0.00;0.00;;;;;;;33.74;35.48;99616.34;5036937;28;20104;-62
2023/09/20 11:32:41;;;;;;;0.00;0.00;;;;;;;33.65;34.93;99617.56;5048407;28;20029;-62
2023/09/20 11:35:07;;;;;;;0.00;0.00;;;;;;;33.60;33.80;99607.16;5036826;28;20523;-62
2023/09/20 11:37:35;;;;;;;0.00;0.00;;;;;;;32.84;35.65;99599.91;5036421;28;20044;-63
2023/09/20 11:40:01;;;;;;;0.00;0.00;;;;;;;32.85;35.78;99601.59;5045623;28;20028;-62
2023/09/20 11:42:29;;;;;;;0.00;0.00;;;;;;;33.17;35.20;99595.47;5043184;28;20041;-62
2023/09/20 11:45:01;;;;;;;0.00;0.00;;;;;;;32.82;35.10;99591.00;5048195;28;20032;-63
2023/09/20 11:47:31;;;;;;;0.00;0.00;;;;;;;33.25;35.67;99599.97;5046388;28;20021;-62
2023/09/20 11:49:57;;;;;;;0.00;0.00;;;;;;;33.38;35.45;99586.22;5038411;28;20632;-63
2023/09/20 11:52:22;;;;;;;0.00;0.00;;;;;;;33.77;34.99;99585.56;5034746;28;20037;-63
2023/09/20 11:54:48;;;;;;;0.00;0.00;;;;;;;34.17;34.97;99571.63;5037542;28;20496;-63
2023/09/20 11:57:17;;;;;;;0.00;0.00;;;;;;;34.58;34.60;99568.69;5051939;28;20073;-63
2023/09/20 11:59:43;;;;;;;0.00;0.00;;;;;;;34.67;34.02;99567.41;5052860;28;20048;-63
2023/09/20 12:02:12;;;;;;;0.00;0.00;;;;;;;34.68;32.60;99571.00;5038339;28;20488;-62
2023/09/20 12:04:38;;;;;;;0.00;0.00;;;;;;;34.47;33.72;99564.66;5043436;28;20078;-63
2023/09/20 12:07:07;;;;;;;0.00;0.00;;;;;;;34.67;31.60;99564.63;5050932;28;20033;-63
2023/09/20 12:09:32;;;;;;;0.00;0.00;;;;;;;34.67;32.71;99555.47;5047149;28;20017;-63
2023/09/20 12:11:58;;;;;;;0.00;0.00;;;;;;;34.59;32.38;99559.31;5040720;28;20046;-63
2023/09/20 12:14:23;;;;;;;0.00;0.00;;;;;;;34.11;31.85;99563.34;5040762;28;20024;-63
2023/09/20 12:16:49;;;;;;;0.00;0.00;;;;;;;34.18;32.36;99551.25;5045967;28;20158;-60